Time;durP1;ratioP1;P1;durP2;ratioP2;P2;SDS_P1;SDS_P2;PMS_P1;PMS_P2;Temp;Humidity;BMP_temperature;BMP_pressure;BME280_temperature;BME280_humidity;BME280_pressure;Samples;Min_cycle;Max_cycle;Signal;HPM_P1;HPM_P2
2023/10/02 00:01:56;;;;;;;32.67;15.55;;;;;;;;;;4963239;28;20130;-71
2023/10/02 00:04:26;;;;;;;34.50;15.48;;;;;;;;;;4962916;28;20035;-69
2023/10/02 00:07:08;;;;;;;31.92;14.88;;;;;;;;;;4965116;28;20193;-69
2023/10/02 00:09:41;;;;;;;32.17;15.40;;;;;;;;;;4962315;28;20039;-68
2023/10/02 00:12:14;;;;;;;28.80;14.50;;;;;;;;;;4961611;28;20030;-68
2023/10/02 00:14:43;;;;;;;27.23;14.40;;;;;;;;;;4963707;28;20061;-70
2023/10/02 00:17:14;;;;;;;31.30;15.23;;;;;;;;;;4963435;28;20069;-70
2023/10/02 00:19:44;;;;;;;30.27;15.02;;;;;;;;;;4960554;28;20031;-70
2023/10/02 00:22:34;;;;;;;29.30;15.23;;;;;;;;;;4968036;28;20189;-69
2023/10/02 00:25:01;;;;;;;33.45;15.32;;;;;;;;;;4966588;28;20464;-67
2023/10/02 00:27:31;;;;;;;30.70;16.38;;;;;;;;;;4967861;28;20081;-69
2023/10/02 00:30:00;;;;;;;34.72;16.35;;;;;;;;;;4963954;28;20035;-68
2023/10/02 00:32:29;;;;;;;29.83;16.90;;;;;;;;;;4949195;28;20059;-68
2023/10/02 00:34:55;;;;;;;37.20;16.17;;;;;;;;;;4962093;28;20027;-69
2023/10/02 00:37:24;;;;;;;37.33;16.98;;;;;;;;;;4948578;28;20060;-68
2023/10/02 00:39:52;;;;;;;38.30;16.90;;;;;;;;;;4965607;28;20065;-69
2023/10/02 00:44:53;;;;;;;33.33;16.95;;;;;;;;;;4962356;28;20081;-69
2023/10/02 00:47:38;;;;;;;32.63;16.38;;;;;;;;;;4966326;28;20034;-69
2023/10/02 00:50:10;;;;;;;37.25;17.00;;;;;;;;;;4964462;28;20038;-69
2023/10/02 00:52:40;;;;;;;32.38;15.65;;;;;;;;;;4965949;28;20019;-68
2023/10/02 00:55:08;;;;;;;32.97;16.57;;;;;;;;;;4962189;28;20515;-69
2023/10/02 00:57:38;;;;;;;33.47;16.38;;;;;;;;;;4962105;28;20294;-69
2023/10/02 01:00:30;;;;;;;32.40;15.98;;;;;;;;;;4961999;28;20031;-69
2023/10/02 01:03:01;;;;;;;38.10;17.15;;;;;;;;;;4961774;28;20043;-69
2023/10/02 01:05:41;;;;;;;33.80;17.15;;;;;;;;;;4964885;28;20051;-69
2023/10/02 01:08:23;;;;;;;34.22;17.48;;;;;;;;;;4962824;28;20030;-70
2023/10/02 01:10:56;;;;;;;35.78;18.42;;;;;;;;;;4966039;28;20090;-69
2023/10/02 01:13:25;;;;;;;31.70;16.42;;;;;;;;;;4989115;28;20042;-70
2023/10/02 01:15:51;;;;;;;34.53;17.05;;;;;;;;;;4976534;28;20027;-68
2023/10/02 01:18:27;;;;;;;37.40;17.80;;;;;;;;;;4967969;28;20101;-70
2023/10/02 01:20:53;;;;;;;37.65;19.00;;;;;;;;;;4970666;28;20019;-69
2023/10/02 01:23:28;;;;;;;34.90;17.63;;;;;;;;;;4965462;28;20192;-70
2023/10/02 01:25:59;;;;;;;37.72;17.67;;;;;;;;;;4970183;28;20042;-70
2023/10/02 01:28:49;;;;;;;35.50;17.35;;;;;;;;;;4973444;28;20031;-69
2023/10/02 01:31:35;;;;;;;34.28;17.05;;;;;;;;;;4967992;28;20062;-70
2023/10/02 01:34:02;;;;;;;34.78;16.60;;;;;;;;;;4965473;28;20761;-70
2023/10/02 01:36:37;;;;;;;30.50;16.20;;;;;;;;;;4970285;28;20031;-70
2023/10/02 01:39:13;;;;;;;31.35;15.75;;;;;;;;;;4965169;28;20023;-70
2023/10/02 01:41:41;;;;;;;32.70;16.60;;;;;;;;;;4968425;28;20128;-69
2023/10/02 01:44:11;;;;;;;33.80;17.27;;;;;;;;;;4949930;28;20090;-69
2023/10/02 01:46:50;;;;;;;34.07;16.07;;;;;;;;;;4966087;28;20045;-69
2023/10/02 01:49:26;;;;;;;31.80;16.20;;;;;;;;;;4965602;28;20114;-69
2023/10/02 01:51:55;;;;;;;32.60;16.10;;;;;;;;;;4964872;28;20023;-69
2023/10/02 01:54:27;;;;;;;34.40;16.38;;;;;;;;;;4963911;28;20027;-70
2023/10/02 01:56:55;;;;;;;35.50;16.70;;;;;;;;;;4967099;28;20551;-69
2023/10/02 01:59:24;;;;;;;30.95;16.00;;;;;;;;;;4966200;28;20031;-69
2023/10/02 02:01:57;;;;;;;33.50;16.20;;;;;;;;;;4966718;28;20031;-69
2023/10/02 02:04:24;;;;;;;34.97;16.98;;;;;;;;;;4965695;28;20042;-69
2023/10/02 02:06:56;;;;;;;37.28;17.70;;;;;;;;;;4964935;28;20034;-69
2023/10/02 02:09:27;;;;;;;34.80;16.45;;;;;;;;;;4967211;28;20073;-70
2023/10/02 02:12:12;;;;;;;34.22;17.38;;;;;;;;;;4964706;28;20031;-68
2023/10/02 02:14:56;;;;;;;35.78;17.02;;;;;;;;;;4964846;28;20022;-70
2023/10/02 02:17:24;;;;;;;34.38;16.88;;;;;;;;;;4964707;28;20046;-70
2023/10/02 02:19:50;;;;;;;36.08;18.05;;;;;;;;;;4965501;28;20113;-70
2023/10/02 02:22:25;;;;;;;34.08;17.05;;;;;;;;;;4966403;28;20125;-70
2023/10/02 02:24:51;;;;;;;38.55;17.27;;;;;;;;;;4966706;28;20030;-70
2023/10/02 02:27:19;;;;;;;34.70;17.10;;;;;;;;;;4966768;28;20026;-70
2023/10/02 02:29:54;;;;;;;37.03;18.23;;;;;;;;;;4965964;28;20143;-69
2023/10/02 02:32:20;;;;;;;37.90;18.42;;;;;;;;;;4959962;28;20054;-70
2023/10/02 02:34:47;;;;;;;38.38;18.67;;;;;;;;;;4962965;28;20161;-70
2023/10/02 02:37:13;;;;;;;35.20;18.58;;;;;;;;;;4966527;28;20029;-69
2023/10/02 02:39:40;;;;;;;38.30;18.35;;;;;;;;;;4967362;28;20073;-69
2023/10/02 02:42:24;;;;;;;39.22;19.08;;;;;;;;;;4965248;28;20042;-69
2023/10/02 02:44:51;;;;;;;37.88;18.65;;;;;;;;;;4961592;28;20050;-70
2023/10/02 02:47:18;;;;;;;35.65;18.38;;;;;;;;;;4968046;28;20075;-69
2023/10/02 02:49:51;;;;;;;38.70;19.25;;;;;;;;;;4961786;28;20058;-69
2023/10/02 02:52:27;;;;;;;40.85;18.80;;;;;;;;;;4964809;28;20518;-70
2023/10/02 02:55:04;;;;;;;38.72;19.27;;;;;;;;;;4966603;28;20054;-70
2023/10/02 02:57:34;;;;;;;39.72;19.63;;;;;;;;;;4968047;28;20118;-70
2023/10/02 03:02:52;;;;;;;42.67;18.67;;;;;;;;;;4968870;28;20344;-70
2023/10/02 03:05:22;;;;;;;44.40;19.27;;;;;;;;;;4964438;28;20076;-70
2023/10/02 03:07:54;;;;;;;39.85;19.23;;;;;;;;;;4964251;28;20046;-70
2023/10/02 03:10:22;;;;;;;37.45;18.85;;;;;;;;;;4965765;28;20407;-69
2023/10/02 03:12:49;;;;;;;34.90;17.83;;;;;;;;;;4961746;28;20090;-70
2023/10/02 03:15:17;;;;;;;38.15;17.95;;;;;;;;;;4964042;28;20050;-69
2023/10/02 03:17:44;;;;;;;40.45;19.35;;;;;;;;;;4962917;28;20555;-70
2023/10/02 03:20:23;;;;;;;45.97;19.88;;;;;;;;;;4964077;28;20027;-70
2023/10/02 03:22:53;;;;;;;40.58;19.42;;;;;;;;;;4964718;28;20031;-70
2023/10/02 03:25:40;;;;;;;38.92;18.33;;;;;;;;;;4964361;28;20018;-70
2023/10/02 03:28:16;;;;;;;38.50;18.83;;;;;;;;;;4964588;28;20098;-70
2023/10/02 03:30:47;;;;;;;47.38;19.48;;;;;;;;;;4955312;28;20277;-70
2023/10/02 03:33:20;;;;;;;37.58;18.60;;;;;;;;;;4974802;28;20054;-71
2023/10/02 03:36:08;;;;;;;40.83;19.42;;;;;;;;;;4972940;28;20021;-70
2023/10/02 03:38:35;;;;;;;41.10;18.23;;;;;;;;;;4977446;28;20027;-69
2023/10/02 03:41:02;;;;;;;40.63;19.60;;;;;;;;;;4959505;28;20022;-70
2023/10/02 03:43:34;;;;;;;43.95;17.92;;;;;;;;;;4961986;28;20027;-70
2023/10/02 03:46:07;;;;;;;40.92;18.27;;;;;;;;;;4960428;28;20066;-70
2023/10/02 03:48:36;;;;;;;40.35;18.13;;;;;;;;;;4963101;28;20026;-70
2023/10/02 03:51:06;;;;;;;44.55;19.92;;;;;;;;;;4959926;28;20039;-69
2023/10/02 03:53:34;;;;;;;39.25;18.38;;;;;;;;;;4960782;28;20058;-69
2023/10/02 03:56:36;;;;;;;41.78;19.63;;;;;;;;;;4966447;28;20054;-68
2023/10/02 03:58:47;;;;;;;39.75;19.20;;;;;;;;;;4963462;28;20038;-69
2023/10/02 04:01:17;;;;;;;42.35;19.30;;;;;;;;;;4962571;28;20019;-68
2023/10/02 04:04:11;;;;;;;41.60;19.20;;;;;;;;;;4963463;28;20038;-70
2023/10/02 04:06:37;;;;;;;42.35;19.55;;;;;;;;;;4964713;28;20039;-69
2023/10/02 04:09:14;;;;;;;45.40;20.45;;;;;;;;;;4965220;28;20027;-68
2023/10/02 04:11:43;;;;;;;53.58;21.10;;;;;;;;;;4964271;28;20081;-69
2023/10/02 04:14:20;;;;;;;42.83;19.83;;;;;;;;;;4961425;28;20043;-69
2023/10/02 04:16:49;;;;;;;47.53;20.88;;;;;;;;;;4962466;28;20026;-70
2023/10/02 04:19:16;;;;;;;42.78;20.52;;;;;;;;;;4962359;28;20130;-69
2023/10/02 04:21:47;;;;;;;43.80;19.63;;;;;;;;;;4965924;28;20031;-70
2023/10/02 04:24:14;;;;;;;37.03;19.83;;;;;;;;;;4967834;28;20038;-69
2023/10/02 04:26:44;;;;;;;45.05;21.33;;;;;;;;;;4964852;28;20055;-70
2023/10/02 04:29:28;;;;;;;41.35;19.10;;;;;;;;;;4965891;28;20039;-69
2023/10/02 04:32:11;;;;;;;42.83;20.02;;;;;;;;;;4965214;28;20102;-70
2023/10/02 04:34:37;;;;;;;44.20;20.48;;;;;;;;;;4961700;28;20587;-70
2023/10/02 04:37:19;;;;;;;43.30;21.20;;;;;;;;;;4963801;28;20042;-69
2023/10/02 04:39:52;;;;;;;50.47;23.05;;;;;;;;;;4966124;28;20046;-69
2023/10/02 04:42:25;;;;;;;49.58;22.95;;;;;;;;;;4983265;28;20046;-72
2023/10/02 04:44:58;;;;;;;54.33;24.15;;;;;;;;;;4980200;28;20099;-70
2023/10/02 04:47:26;;;;;;;50.90;24.33;;;;;;;;;;4963696;28;20047;-70
2023/10/02 04:52:53;;;;;;;45.63;23.38;;;;;;;;;;4968861;28;20071;-70
2023/10/02 04:55:23;;;;;;;45.63;21.85;;;;;;;;;;4967326;28;20065;-70
2023/10/02 04:57:54;;;;;;;53.75;24.05;;;;;;;;;;4969160;28;20691;-71
2023/10/02 05:00:32;;;;;;;49.03;22.45;;;;;;;;;;4973645;28;20388;-69
2023/10/02 05:05:58;;;;;;;46.25;21.67;;;;;;;;;;4934644;28;20043;-68
2023/10/02 05:08:35;;;;;;;58.65;22.80;;;;;;;;;;4972576;28;20033;-71
2023/10/02 05:11:06;;;;;;;57.65;24.85;;;;;;;;;;4963821;28;20449;-69
2023/10/02 05:13:45;;;;;;;;;;;;;;;;;;4970570;28;20500;-70
2023/10/02 05:16:12;;;;;;;50.47;22.75;;;;;;;;;;4969476;28;19910;-71
2023/10/02 05:18:44;;;;;;;53.25;23.85;;;;;;;;;;4966040;28;20027;-70
2023/10/02 05:21:10;;;;;;;51.95;22.17;;;;;;;;;;4969543;28;20034;-70
2023/10/02 05:23:36;;;;;;;51.13;23.77;;;;;;;;;;4971126;28;20067;-70
2023/10/02 05:26:04;;;;;;;49.63;23.67;;;;;;;;;;4971069;28;20038;-70
2023/10/02 05:28:42;;;;;;;56.30;25.88;;;;;;;;;;4972029;28;20065;-70
2023/10/02 05:31:15;;;;;;;55.65;26.83;;;;;;;;;;4962293;28;20031;-70
2023/10/02 05:33:43;;;;;;;59.53;26.48;;;;;;;;;;4971638;28;20026;-69
2023/10/02 05:36:10;;;;;;;53.75;25.40;;;;;;;;;;4933074;28;20419;-68
2023/10/02 05:38:38;;;;;;;52.22;25.58;;;;;;;;;;4964358;28;20031;-68
2023/10/02 05:41:12;;;;;;;56.75;25.33;;;;;;;;;;4960727;28;20066;-70
2023/10/02 05:43:55;;;;;;;56.88;25.55;;;;;;;;;;4963566;28;20038;-69
2023/10/02 05:46:21;;;;;;;56.33;25.60;;;;;;;;;;4966751;28;20038;-69
2023/10/02 05:49:00;;;;;;;51.65;25.48;;;;;;;;;;4968859;28;20230;-70
2023/10/02 05:51:45;;;;;;;58.00;25.80;;;;;;;;;;4962539;28;20031;-70
2023/10/02 05:54:11;;;;;;;53.08;25.10;;;;;;;;;;4966733;28;20368;-70
2023/10/02 05:56:37;;;;;;;51.35;23.73;;;;;;;;;;4965605;28;20123;-69
2023/10/02 05:59:04;;;;;;;49.35;24.33;;;;;;;;;;4953529;28;20031;-70
2023/10/02 06:01:34;;;;;;;56.65;25.63;;;;;;;;;;4964492;28;20042;-69
2023/10/02 06:04:00;;;;;;;59.22;26.65;;;;;;;;;;4963906;28;20209;-69
2023/10/02 06:06:31;;;;;;;53.88;25.48;;;;;;;;;;4965718;28;20066;-70
2023/10/02 06:09:03;;;;;;;61.60;26.90;;;;;;;;;;4960638;28;20530;-69
2023/10/02 06:11:33;;;;;;;63.35;28.05;;;;;;;;;;4965468;28;20035;-70
2023/10/02 06:14:09;;;;;;;63.70;26.87;;;;;;;;;;4966511;28;20027;-70
2023/10/02 06:16:37;;;;;;;57.22;26.75;;;;;;;;;;4962279;28;20031;-70
2023/10/02 06:19:06;;;;;;;51.63;24.65;;;;;;;;;;4963613;28;20401;-69
2023/10/02 06:21:45;;;;;;;56.13;24.10;;;;;;;;;;4965664;28;20106;-70
2023/10/02 06:24:12;;;;;;;55.95;24.95;;;;;;;;;;4963338;28;20043;-69
2023/10/02 06:26:53;;;;;;;56.88;24.08;;;;;;;;;;4964322;28;20139;-69
2023/10/02 06:29:22;;;;;;;58.53;24.10;;;;;;;;;;4969658;28;20125;-69
2023/10/02 06:31:58;;;;;;;59.38;24.92;;;;;;;;;;4966108;28;20031;-68
2023/10/02 06:34:37;;;;;;;50.90;24.33;;;;;;;;;;4971059;28;20110;-69
2023/10/02 06:37:25;;;;;;;52.45;24.40;;;;;;;;;;4966317;28;20034;-69
2023/10/02 06:40:07;;;;;;;52.67;24.45;;;;;;;;;;4967987;28;20373;-69
2023/10/02 06:42:33;;;;;;;48.25;24.15;;;;;;;;;;4974396;28;20049;-69
2023/10/02 06:45:03;;;;;;;47.13;22.88;;;;;;;;;;4972930;28;20033;-70
2023/10/02 06:47:30;;;;;;;48.08;23.25;;;;;;;;;;4970271;28;20030;-70
2023/10/02 06:52:41;;;;;;;48.42;21.02;;;;;;;;;;4976708;28;20041;-70
2023/10/02 06:55:11;;;;;;;43.80;21.48;;;;;;;;;;4976645;28;20058;-70
2023/10/02 06:57:49;;;;;;;45.80;22.50;;;;;;;;;;4972859;28;20122;-72
2023/10/02 07:00:19;;;;;;;44.10;21.38;;;;;;;;;;4969535;28;20119;-71
2023/10/02 07:02:56;;;;;;;49.75;20.55;;;;;;;;;;4988084;28;20109;-70
2023/10/02 07:05:34;;;;;;;50.15;20.38;;;;;;;;;;4986082;28;20038;-69
2023/10/02 07:08:17;;;;;;;44.42;20.88;;;;;;;;;;4970203;28;20031;-68
2023/10/02 07:10:44;;;;;;;43.78;20.88;;;;;;;;;;4975983;28;20054;-69
2023/10/02 07:13:29;;;;;;;43.50;20.52;;;;;;;;;;4971762;28;20031;-69
2023/10/02 07:15:59;;;;;;;42.25;19.13;;;;;;;;;;4967496;28;20041;-68
2023/10/02 07:18:37;;;;;;;43.20;20.25;;;;;;;;;;4971248;28;20035;-69
2023/10/02 07:21:07;;;;;;;41.38;19.75;;;;;;;;;;4966794;28;20042;-69
2023/10/02 07:23:37;;;;;;;40.08;18.80;;;;;;;;;;4973206;28;20079;-68
2023/10/02 07:26:04;;;;;;;37.25;19.08;;;;;;;;;;4972160;28;20117;-70
2023/10/02 07:28:31;;;;;;;37.15;18.70;;;;;;;;;;4985074;28;20514;-69
2023/10/02 07:30:59;;;;;;;44.28;19.95;;;;;;;;;;4973878;28;20550;-69
2023/10/02 07:33:25;;;;;;;39.50;19.70;;;;;;;;;;4986365;28;20094;-69
2023/10/02 07:35:54;;;;;;;39.05;18.25;;;;;;;;;;4977012;28;20065;-70
2023/10/02 07:38:22;;;;;;;48.50;20.25;;;;;;;;;;4966612;28;20031;-69
2023/10/02 07:40:49;;;;;;;51.03;21.27;;;;;;;;;;4970646;28;20117;-69
2023/10/02 07:43:19;;;;;;;39.00;18.85;;;;;;;;;;4980660;28;20027;-68
2023/10/02 07:46:01;;;;;;;42.55;19.92;;;;;;;;;;4973095;28;20035;-71
2023/10/02 07:48:33;;;;;;;39.10;18.95;;;;;;;;;;4974692;28;20118;-69
2023/10/02 07:51:00;;;;;;;39.05;19.02;;;;;;;;;;4970216;28;20069;-69
2023/10/02 07:53:39;;;;;;;42.65;18.80;;;;;;;;;;4976470;28;20090;-69
2023/10/02 07:56:12;;;;;;;36.17;19.08;;;;;;;;;;4978338;28;20045;-69
2023/10/02 07:58:39;;;;;;;42.45;20.38;;;;;;;;;;4975627;28;20125;-69
2023/10/02 08:01:11;;;;;;;44.47;19.48;;;;;;;;;;4974568;28;20129;-69
2023/10/02 08:03:43;;;;;;;38.45;18.48;;;;;;;;;;4979237;28;20137;-68
2023/10/02 08:11:50;;;;;;;43.38;19.30;;;;;;;;;;4973854;28;20053;-69
2023/10/02 08:14:38;;;;;;;51.80;20.73;;;;;;;;;;4982937;28;20756;-69
2023/10/02 08:17:18;;;;;;;39.60;18.88;;;;;;;;;;4975416;28;20062;-70
2023/10/02 08:19:54;;;;;;;36.65;19.13;;;;;;;;;;4975205;28;20027;-68
2023/10/02 08:22:44;;;;;;;43.47;20.73;;;;;;;;;;4975245;28;20045;-70
2023/10/02 08:25:14;;;;;;;38.25;19.27;;;;;;;;;;4964743;28;20476;-69
2023/10/02 08:27:41;;;;;;;39.33;19.77;;;;;;;;;;4974526;28;20042;-70
2023/10/02 08:30:26;;;;;;;41.88;19.70;;;;;;;;;;4973481;28;20037;-70
2023/10/02 08:32:53;;;;;;;36.40;18.92;;;;;;;;;;4974104;28;20039;-70
2023/10/02 08:35:19;;;;;;;41.42;18.88;;;;;;;;;;4969384;28;20114;-69
2023/10/02 08:37:46;;;;;;;39.58;20.25;;;;;;;;;;4978234;28;20030;-71
2023/10/02 08:40:15;;;;;;;36.35;19.75;;;;;;;;;;4978967;28;20034;-70
2023/10/02 08:42:46;;;;;;;41.17;20.55;;;;;;;;;;4972936;28;20035;-70
2023/10/02 08:45:20;;;;;;;39.20;19.60;;;;;;;;;;4969438;28;20035;-70
2023/10/02 08:47:50;;;;;;;38.50;21.05;;;;;;;;;;4962434;28;20066;-70
2023/10/02 08:50:17;;;;;;;37.55;20.55;;;;;;;;;;4967335;28;20089;-70
2023/10/02 08:52:52;;;;;;;40.90;20.50;;;;;;;;;;4972009;28;20039;-71
2023/10/02 08:55:33;;;;;;;43.08;19.75;;;;;;;;;;4964915;28;20113;-70
2023/10/02 08:58:15;;;;;;;45.00;22.17;;;;;;;;;;4960748;28;20073;-71
2023/10/02 09:01:06;;;;;;;44.25;21.48;;;;;;;;;;4969813;28;20042;-71
2023/10/02 09:03:42;;;;;;;45.05;21.30;;;;;;;;;;4978392;28;20439;-71
2023/10/02 09:09:23;;;;;;;47.85;21.05;;;;;;;;;;4938739;28;20385;-71
2023/10/02 09:11:53;;;;;;;45.90;21.77;;;;;;;;;;4954127;28;20063;-69
2023/10/02 09:14:23;;;;;;;43.78;21.42;;;;;;;;;;4967961;28;20030;-71
2023/10/02 09:19:49;;;;;;;44.95;23.02;;;;;;;;;;4960578;28;20031;-71
2023/10/02 09:22:18;;;;;;;48.67;23.25;;;;;;;;;;4954528;28;20066;-70
2023/10/02 09:25:09;;;;;;;52.33;21.80;;;;;;;;;;4967294;28;20026;-70
2023/10/02 09:27:41;;;;;;;56.25;24.45;;;;;;;;;;4968582;28;20069;-71
2023/10/02 09:30:28;;;;;;;50.70;24.40;;;;;;;;;;4948859;28;20034;-70
2023/10/02 09:32:54;;;;;;;44.30;22.92;;;;;;;;;;4967843;28;20039;-71
2023/10/02 09:35:33;;;;;;;45.65;23.35;;;;;;;;;;4967440;28;20023;-71
2023/10/02 09:38:04;;;;;;;44.00;22.92;;;;;;;;;;4973477;28;20089;-70
2023/10/02 09:43:23;;;;;;;41.08;21.27;;;;;;;;;;4967465;28;20046;-70
2023/10/02 09:45:49;;;;;;;;;;;;;;;;;;4972095;28;20059;-70
2023/10/02 09:48:46;;;;;;;41.28;21.38;;;;;;;;;;4967874;28;19917;-70
2023/10/02 09:51:37;;;;;;;35.28;20.30;;;;;;;;;;4967548;28;20159;-70
2023/10/02 09:54:13;;;;;;;36.88;19.33;;;;;;;;;;4976045;28;20110;-70
2023/10/02 09:57:04;;;;;;;37.50;19.67;;;;;;;;;;4971931;28;20022;-72
2023/10/02 09:59:37;;;;;;;35.08;18.98;;;;;;;;;;4972259;28;20037;-70
2023/10/02 10:02:45;;;;;;;35.03;18.88;;;;;;;;;;4968014;28;20079;-70
2023/10/02 10:05:22;;;;;;;38.00;18.35;;;;;;;;;;4964190;28;20078;-72
2023/10/02 10:10:46;;;;;;;45.58;20.00;;;;;;;;;;4963234;28;20023;-71
2023/10/02 10:13:50;;;;;;;40.33;20.75;;;;;;;;;;4972603;28;20122;-70
2023/10/02 10:16:36;;;;;;;43.22;19.83;;;;;;;;;;4966112;28;20121;-70
2023/10/02 10:24:56;;;;;;;43.00;18.83;;;;;;;;;;4959593;28;20119;-71
2023/10/02 10:27:41;;;;;;;35.25;18.10;;;;;;;;;;4972551;28;20058;-69
2023/10/02 10:30:27;;;;;;;44.90;18.52;;;;;;;;;;4969673;28;20078;-74
2023/10/02 10:33:20;;;;;;;41.05;18.02;;;;;;;;;;4962465;28;20034;-70
2023/10/02 10:35:58;;;;;;;34.05;16.98;;;;;;;;;;4945926;28;20047;-71
2023/10/02 10:38:37;;;;;;;35.80;19.08;;;;;;;;;;4971809;28;20035;-71
2023/10/02 10:41:05;;;;;;;32.85;17.02;;;;;;;;;;4970196;28;20121;-70
2023/10/02 10:43:55;;;;;;;37.75;18.42;;;;;;;;;;4968737;28;20361;-72
2023/10/02 10:46:28;;;;;;;33.03;16.98;;;;;;;;;;4969738;28;20046;-70
2023/10/02 10:49:07;;;;;;;32.75;17.17;;;;;;;;;;4970906;28;20026;-71
2023/10/02 10:51:37;;;;;;;33.42;16.48;;;;;;;;;;4970723;28;20046;-71
2023/10/02 10:54:13;;;;;;;36.17;18.15;;;;;;;;;;4970662;28;20086;-72
2023/10/02 10:56:56;;;;;;;28.48;14.80;;;;;;;;;;4969283;28;20034;-70
2023/10/02 10:59:24;;;;;;;26.48;16.00;;;;;;;;;;4970656;28;20034;-70
2023/10/02 11:02:09;;;;;;;32.60;16.35;;;;;;;;;;4973188;28;20035;-71
2023/10/02 11:04:43;;;;;;;29.80;13.82;;;;;;;;;;4970784;28;20030;-70
2023/10/02 11:07:19;;;;;;;28.80;14.52;;;;;;;;;;4969819;28;20057;-70
2023/10/02 11:10:15;;;;;;;26.02;13.35;;;;;;;;;;4969454;28;20039;-70
2023/10/02 11:12:55;;;;;;;25.60;12.57;;;;;;;;;;4966700;28;20517;-69
2023/10/02 11:18:18;;;;;;;24.88;10.52;;;;;;;;;;4965233;28;20490;-70
2023/10/02 11:20:51;;;;;;;20.63;10.80;;;;;;;;;;4969144;28;20114;-70
2023/10/02 11:23:39;;;;;;;26.42;12.38;;;;;;;;;;4971178;28;20031;-70
2023/10/02 11:26:13;;;;;;;22.70;11.48;;;;;;;;;;4968800;28;20029;-70
2023/10/02 11:28:44;;;;;;;22.95;11.25;;;;;;;;;;4971815;28;20058;-70
2023/10/02 11:31:29;;;;;;;23.95;12.02;;;;;;;;;;4970495;28;20047;-72
2023/10/02 11:34:00;;;;;;;26.23;12.38;;;;;;;;;;4971325;28;20053;-70
2023/10/02 11:36:28;;;;;;;22.70;12.32;;;;;;;;;;4969803;28;20078;-71
2023/10/02 11:38:55;;;;;;;25.73;12.77;;;;;;;;;;4968642;28;20297;-72
2023/10/02 11:41:22;;;;;;;27.85;14.40;;;;;;;;;;4967673;28;20038;-70
2023/10/02 11:43:48;;;;;;;27.27;13.43;;;;;;;;;;4970397;28;20038;-71
2023/10/02 11:46:15;;;;;;;26.45;12.57;;;;;;;;;;4968695;28;20038;-70
2023/10/02 11:48:41;;;;;;;26.08;12.68;;;;;;;;;;4968525;28;20038;-70
2023/10/02 11:51:07;;;;;;;27.75;13.43;;;;;;;;;;4971309;28;20041;-73
2023/10/02 11:53:34;;;;;;;33.85;14.52;;;;;;;;;;4952254;28;20027;-72
2023/10/02 11:56:01;;;;;;;28.08;14.48;;;;;;;;;;4970145;28;20035;-72
2023/10/02 11:58:28;;;;;;;28.88;14.88;;;;;;;;;;4971080;28;20047;-70
2023/10/02 12:00:54;;;;;;;29.88;14.90;;;;;;;;;;4970240;28;20062;-71
2023/10/02 12:03:20;;;;;;;27.85;15.18;;;;;;;;;;4971151;28;20035;-69
2023/10/02 12:05:50;;;;;;;31.75;15.40;;;;;;;;;;4969452;28;20058;-70
2023/10/02 12:08:20;;;;;;;30.77;15.75;;;;;;;;;;4970584;28;20035;-70
2023/10/02 12:10:46;;;;;;;25.02;14.23;;;;;;;;;;4963060;28;20037;-71
2023/10/02 12:13:13;;;;;;;28.42;14.75;;;;;;;;;;4967627;28;20106;-70
2023/10/02 12:15:43;;;;;;;26.60;14.48;;;;;;;;;;4966876;28;20038;-71
2023/10/02 12:18:09;;;;;;;;;;;;;;;;;;4959746;28;20038;-70
2023/10/02 12:20:39;;;;;;;37.42;14.13;;;;;;;;;;4965723;28;19918;-71
2023/10/02 12:23:05;;;;;;;34.63;14.53;;;;;;;;;;4971341;28;20050;-70
2023/10/02 12:25:31;;;;;;;39.72;15.27;;;;;;;;;;4968588;28;20290;-72
2023/10/02 12:27:57;;;;;;;25.30;12.55;;;;;;;;;;4968025;28;20039;-69
2023/10/02 12:30:23;;;;;;;28.52;13.35;;;;;;;;;;4968870;28;20118;-69
2023/10/02 12:32:49;;;;;;;25.52;13.43;;;;;;;;;;4965486;28;20110;-71
2023/10/02 12:35:16;;;;;;;30.45;12.93;;;;;;;;;;4968941;28;20042;-71
2023/10/02 12:37:42;;;;;;;29.13;13.23;;;;;;;;;;4968203;28;20037;-70
2023/10/02 12:40:12;;;;;;;26.33;14.18;;;;;;;;;;4966708;28;20027;-71
2023/10/02 12:42:38;;;;;;;27.17;13.13;;;;;;;;;;4963799;28;20034;-69
2023/10/02 12:45:06;;;;;;;29.35;14.50;;;;;;;;;;4964129;28;20027;-70
2023/10/02 12:47:36;;;;;;;25.63;13.63;;;;;;;;;;4965546;28;20129;-70
2023/10/02 12:50:10;;;;;;;29.90;13.75;;;;;;;;;;4964253;28;20504;-69
2023/10/02 12:52:36;;;;;;;25.35;13.90;;;;;;;;;;4968083;28;20039;-70
2023/10/02 12:55:02;;;;;;;26.25;13.48;;;;;;;;;;4934728;28;20035;-69
2023/10/02 12:57:28;;;;;;;26.63;12.82;;;;;;;;;;4966376;28;20026;-69
2023/10/02 12:59:55;;;;;;;24.30;13.02;;;;;;;;;;4963433;28;20409;-70
2023/10/02 13:02:22;;;;;;;26.35;12.85;;;;;;;;;;4965777;28;20034;-70
2023/10/02 13:04:48;;;;;;;22.05;12.02;;;;;;;;;;4948975;28;20034;-70
2023/10/02 13:07:15;;;;;;;25.40;13.18;;;;;;;;;;4950933;28;20264;-70
2023/10/02 13:09:43;;;;;;;25.98;13.38;;;;;;;;;;4960348;28;20087;-70
2023/10/02 13:12:09;;;;;;;23.85;13.57;;;;;;;;;;4967142;28;20043;-70
2023/10/02 13:14:37;;;;;;;28.65;13.90;;;;;;;;;;4968762;28;20494;-70
2023/10/02 13:17:04;;;;;;;26.98;12.98;;;;;;;;;;4955233;28;20046;-69
2023/10/02 13:19:33;;;;;;;26.65;13.20;;;;;;;;;;4958718;28;20540;-70
2023/10/02 13:21:59;;;;;;;26.25;13.93;;;;;;;;;;4964765;28;20097;-74
2023/10/02 13:24:28;;;;;;;27.17;13.88;;;;;;;;;;4965101;28;20146;-71
2023/10/02 13:26:54;;;;;;;24.35;12.35;;;;;;;;;;4966285;28;20108;-71
2023/10/02 13:29:20;;;;;;;26.42;11.90;;;;;;;;;;4952129;28;20110;-69
2023/10/02 13:31:48;;;;;;;24.83;12.45;;;;;;;;;;4965964;28;20031;-69
2023/10/02 13:34:14;;;;;;;28.73;12.45;;;;;;;;;;4967973;28;20050;-70
2023/10/02 13:36:40;;;;;;;23.52;12.57;;;;;;;;;;4964656;28;20054;-71
2023/10/02 13:39:12;;;;;;;24.80;13.20;;;;;;;;;;4968426;28;20058;-70
2023/10/02 13:41:39;;;;;;;30.00;13.35;;;;;;;;;;4962598;28;20112;-70
2023/10/02 13:44:06;;;;;;;25.13;13.60;;;;;;;;;;4960512;28;20087;-71
2023/10/02 13:46:38;;;;;;;24.25;12.32;;;;;;;;;;4965172;28;20101;-70
2023/10/02 13:49:05;;;;;;;24.92;13.50;;;;;;;;;;4967102;28;20411;-69
2023/10/02 13:51:31;;;;;;;25.27;12.85;;;;;;;;;;4963219;28;20035;-70
2023/10/02 13:53:57;;;;;;;24.77;13.60;;;;;;;;;;4965530;28;20104;-71
2023/10/02 13:56:32;;;;;;;26.92;13.30;;;;;;;;;;4962201;28;21252;-70
2023/10/02 13:58:59;;;;;;;27.60;13.10;;;;;;;;;;4962143;28;20019;-69
2023/10/02 14:01:26;;;;;;;26.23;12.80;;;;;;;;;;4967905;28;20439;-69
2023/10/02 14:03:54;;;;;;;25.17;13.32;;;;;;;;;;4972473;28;20098;-70
2023/10/02 14:06:23;;;;;;;34.47;12.88;;;;;;;;;;4970827;28;20051;-68
2023/10/02 14:08:52;;;;;;;25.70;12.40;;;;;;;;;;4965712;28;21298;-71
2023/10/02 14:11:19;;;;;;;23.83;12.83;;;;;;;;;;4962767;28;20027;-70
2023/10/02 14:13:48;;;;;;;31.83;14.23;;;;;;;;;;4964427;28;20085;-70
2023/10/02 14:16:15;;;;;;;28.27;13.60;;;;;;;;;;4962997;28;20172;-70
2023/10/02 14:18:41;;;;;;;24.00;13.95;;;;;;;;;;4967102;28;20035;-69
2023/10/02 14:21:13;;;;;;;35.03;13.73;;;;;;;;;;4960915;28;20031;-69
2023/10/02 14:23:40;;;;;;;29.88;14.70;;;;;;;;;;4966974;28;20038;-69
2023/10/02 14:26:16;;;;;;;25.42;13.18;;;;;;;;;;4965582;28;20015;-69
2023/10/02 14:28:43;;;;;;;30.65;13.85;;;;;;;;;;4973446;28;20031;-69
2023/10/02 14:31:10;;;;;;;33.17;14.05;;;;;;;;;;4968330;28;20037;-69
2023/10/02 14:33:43;;;;;;;31.08;15.25;;;;;;;;;;4966165;28;20439;-68
2023/10/02 14:36:10;;;;;;;34.08;16.10;;;;;;;;;;4963360;28;20070;-69
2023/10/02 14:38:37;;;;;;;35.45;14.60;;;;;;;;;;4982214;28;20042;-69
2023/10/02 14:41:03;;;;;;;32.78;15.45;;;;;;;;;;4967169;28;20118;-68
2023/10/02 14:43:31;;;;;;;28.38;15.13;;;;;;;;;;4963702;28;20097;-69
2023/10/02 14:45:57;;;;;;;34.03;15.13;;;;;;;;;;4963645;28;20038;-69
2023/10/02 14:48:24;;;;;;;30.05;15.30;;;;;;;;;;4966834;28;20077;-69
2023/10/02 14:50:55;;;;;;;30.48;16.20;;;;;;;;;;4968014;28;20142;-69
2023/10/02 14:53:21;;;;;;;27.15;15.07;;;;;;;;;;4966993;28;20480;-69
2023/10/02 14:55:49;;;;;;;31.80;15.45;;;;;;;;;;4967236;28;20559;-69
2023/10/02 14:58:17;;;;;;;32.10;15.60;;;;;;;;;;4971022;28;20030;-70
2023/10/02 15:00:44;;;;;;;27.95;14.75;;;;;;;;;;4970649;28;20433;-70
2023/10/02 15:03:14;;;;;;;28.08;15.20;;;;;;;;;;4969887;28;20031;-71
2023/10/02 15:05:40;;;;;;;29.95;15.93;;;;;;;;;;4968784;28;20065;-69
2023/10/02 15:08:11;;;;;;;31.95;16.15;;;;;;;;;;4970628;28;20113;-71
2023/10/02 15:10:37;;;;;;;34.97;17.02;;;;;;;;;;4969131;28;20034;-69
2023/10/02 15:13:04;;;;;;;37.50;17.23;;;;;;;;;;4969637;28;20101;-69
2023/10/02 15:15:30;;;;;;;35.85;16.27;;;;;;;;;;4965515;28;20031;-70
2023/10/02 15:18:01;;;;;;;34.42;15.90;;;;;;;;;;4961934;28;20074;-71
2023/10/02 15:20:27;;;;;;;33.70;16.23;;;;;;;;;;4963947;28;20023;-69
2023/10/02 15:22:55;;;;;;;43.75;16.98;;;;;;;;;;4969531;28;20065;-71
2023/10/02 15:25:21;;;;;;;33.33;15.90;;;;;;;;;;4967941;28;20042;-70
2023/10/02 15:27:52;;;;;;;32.15;16.17;;;;;;;;;;4967293;28;20035;-69